Time;durP1;ratioP1;P1;durP2;ratioP2;P2;SDS_P1;SDS_P2;PMS_P1;PMS_P2;Temp;Humidity;BMP_temperature;BMP_pressure;BME280_temperature;BME280_humidity;BME280_pressure;Samples;Min_cycle;Max_cycle;Signal;HPM_P1;HPM_P2
2022/08/16 00:01:45;;;;;;;1999.90;999.90;;;19.10;99.90;;;;;;5069970;28;20457;-71
2022/08/16 00:04:12;;;;;;;1999.90;999.90;;;19.00;99.90;;;;;;5073674;28;20489;-71
2022/08/16 00:06:39;;;;;;;1999.90;999.90;;;19.00;99.90;;;;;;5071742;28;20996;-73
2022/08/16 00:09:06;;;;;;;1999.90;999.90;;;19.00;99.90;;;;;;5068895;28;20499;-72
2022/08/16 00:11:34;;;;;;;1999.90;999.90;;;18.90;99.90;;;;;;5072710;28;20518;-71
2022/08/16 00:14:02;;;;;;;1999.90;999.90;;;19.00;99.90;;;;;;5073073;28;20481;-70
2022/08/16 00:16:31;;;;;;;1999.90;999.90;;;19.00;99.90;;;;;;5073201;28;20513;-70
2022/08/16 00:18:58;;;;;;;1999.90;999.90;;;19.00;99.90;;;;;;5072501;28;20483;-69
2022/08/16 00:21:25;;;;;;;1999.90;999.90;;;19.00;99.90;;;;;;5071267;28;20492;-68
2022/08/16 00:23:51;;;;;;;1999.90;999.90;;;19.10;99.90;;;;;;5073537;28;20515;-70
2022/08/16 00:26:18;;;;;;;1999.90;999.90;;;19.10;99.90;;;;;;5073228;28;20499;-70
2022/08/16 00:28:46;;;;;;;1999.90;999.90;;;19.10;99.90;;;;;;5073097;28;20510;-72
2022/08/16 00:31:13;;;;;;;1999.90;999.90;;;19.00;99.90;;;;;;5069676;28;20889;-70
2022/08/16 00:33:40;;;;;;;1999.90;999.90;;;19.00;99.90;;;;;;5068885;28;20455;-71
2022/08/16 00:36:07;;;;;;;1999.90;999.90;;;18.90;99.90;;;;;;5074921;28;20511;-73
2022/08/16 00:38:33;;;;;;;1999.90;999.90;;;18.90;99.90;;;;;;5076692;28;20469;-71
2022/08/16 00:41:00;;;;;;;1999.90;999.90;;;18.90;99.90;;;;;;5073101;28;20461;-70
2022/08/16 00:43:32;;;;;;;1999.90;999.90;;;18.90;99.90;;;;;;5070879;28;20485;-72
2022/08/16 00:46:07;;;;;;;1999.90;999.90;;;19.00;99.90;;;;;;5069926;28;20526;-72
2022/08/16 00:48:34;;;;;;;1999.90;999.90;;;19.00;99.90;;;;;;5071037;28;20507;-72
2022/08/16 00:51:01;;;;;;;1999.90;999.90;;;19.00;99.90;;;;;;5069096;28;20461;-72
2022/08/16 00:53:28;;;;;;;1999.90;999.90;;;19.10;99.90;;;;;;5067269;28;20497;-72
2022/08/16 00:55:58;;;;;;;1999.90;999.90;;;19.10;99.90;;;;;;5068400;28;20478;-72
2022/08/16 00:58:28;;;;;;;1999.90;999.90;;;19.20;99.90;;;;;;5068156;28;20493;-72
2022/08/16 01:00:55;;;;;;;1999.90;999.90;;;19.20;99.90;;;;;;5068988;28;20522;-72
2022/08/16 01:03:27;;;;;;;1999.90;999.90;;;19.20;99.90;;;;;;5067286;28;20569;-72
2022/08/16 01:05:55;;;;;;;1999.90;999.90;;;19.20;99.90;;;;;;5067717;28;20511;-72
2022/08/16 01:08:23;;;;;;;1999.90;999.90;;;19.20;99.90;;;;;;5068550;28;20469;-71
2022/08/16 01:10:51;;;;;;;1999.90;999.90;;;19.10;99.90;;;;;;5069611;28;20465;-72
2022/08/16 01:13:21;;;;;;;1999.90;999.90;;;18.80;99.90;;;;;;5069521;28;20839;-71
2022/08/16 01:15:52;;;;;;;1999.90;999.90;;;18.70;99.90;;;;;;5065766;28;20454;-72
2022/08/16 01:18:24;;;;;;;1999.90;999.90;;;18.70;99.90;;;;;;5069196;28;20465;-73
2022/08/16 01:20:58;;;;;;;1999.90;999.90;;;18.80;99.90;;;;;;5070422;28;20874;-72
2022/08/16 01:23:34;;;;;;;1999.90;999.90;;;18.70;99.90;;;;;;5067036;28;20461;-72
2022/08/16 01:26:03;;;;;;;1999.90;999.90;;;18.70;99.90;;;;;;5069211;28;20452;-71
2022/08/16 01:28:30;;;;;;;1999.90;999.90;;;18.70;99.90;;;;;;5069200;28;20470;-72
2022/08/16 01:30:58;;;;;;;1999.90;999.90;;;18.70;99.90;;;;;;5070711;28;20484;-73
2022/08/16 01:33:25;;;;;;;1999.90;999.90;;;18.80;99.90;;;;;;5066626;28;21042;-72
2022/08/16 01:35:56;;;;;;;1999.90;999.90;;;18.80;99.90;;;;;;5069033;28;20465;-72
2022/08/16 01:38:25;;;;;;;1999.90;999.90;;;18.70;99.90;;;;;;5062610;28;21011;-72
2022/08/16 01:40:56;;;;;;;1999.90;999.90;;;18.70;99.90;;;;;;5068026;28;20510;-72
2022/08/16 01:43:25;;;;;;;1999.90;999.90;;;18.60;99.90;;;;;;5068288;28;20462;-72
2022/08/16 01:45:54;;;;;;;1999.90;999.90;;;18.60;99.90;;;;;;5068613;28;20454;-72
2022/08/16 01:48:23;;;;;;;1999.90;999.90;;;18.60;99.90;;;;;;5066305;28;20849;-72
2022/08/16 01:50:52;;;;;;;1999.90;999.90;;;18.60;99.90;;;;;;5069018;28;20515;-72
2022/08/16 01:53:18;;;;;;;1999.90;999.90;;;18.60;99.90;;;;;;5067211;28;20465;-72
2022/08/16 01:55:45;;;;;;;1999.90;999.90;;;18.60;99.90;;;;;;5064085;28;20530;-72
2022/08/16 01:58:13;;;;;;;1999.90;999.90;;;18.70;99.90;;;;;;5068575;28;20465;-72
2022/08/16 02:00:41;;;;;;;1999.90;999.90;;;18.60;99.90;;;;;;5069213;28;20542;-73
2022/08/16 02:03:07;;;;;;;1999.90;999.90;;;18.60;99.90;;;;;;5068609;28;20457;-72
2022/08/16 02:05:34;;;;;;;1999.90;999.90;;;18.60;99.90;;;;;;5068259;28;20564;-73
2022/08/16 02:08:02;;;;;;;1999.90;999.90;;;18.70;99.90;;;;;;5068932;28;20518;-72
2022/08/16 02:10:28;;;;;;;1999.90;999.90;;;18.70;99.90;;;;;;5067270;28;20953;-72
2022/08/16 02:12:56;;;;;;;1999.90;999.90;;;18.80;99.90;;;;;;5068588;28;21010;-72
2022/08/16 02:15:24;;;;;;;1999.90;999.90;;;18.80;99.90;;;;;;5064973;28;20477;-73
2022/08/16 02:17:52;;;;;;;1999.90;999.90;;;18.80;99.90;;;;;;5069859;28;20461;-74
2022/08/16 02:20:19;;;;;;;1999.90;999.90;;;18.80;99.90;;;;;;5067755;28;20515;-72
2022/08/16 02:22:46;;;;;;;1999.90;999.90;;;18.80;99.90;;;;;;5061996;28;20453;-72
2022/08/16 02:25:15;;;;;;;1999.90;999.90;;;18.70;99.90;;;;;;5067164;28;20535;-72
2022/08/16 02:27:43;;;;;;;1999.90;999.90;;;18.60;99.90;;;;;;5070401;28;20461;-73
2022/08/16 02:30:14;;;;;;;1999.90;999.90;;;18.50;99.90;;;;;;5065851;28;20457;-71
2022/08/16 02:32:43;;;;;;;1999.90;999.90;;;18.50;99.90;;;;;;5068019;28;20453;-72
2022/08/16 02:35:12;;;;;;;1999.90;999.90;;;18.50;99.90;;;;;;5069084;28;20477;-72
2022/08/16 02:37:39;;;;;;;1999.90;999.90;;;18.50;99.90;;;;;;5072046;28;20441;-73
2022/08/16 02:40:07;;;;;;;1999.90;999.90;;;18.60;99.90;;;;;;5071631;28;20938;-72
2022/08/16 02:42:34;;;;;;;1999.90;999.90;;;18.60;99.90;;;;;;5072259;28;20818;-72
2022/08/16 02:45:00;;;;;;;1999.90;999.90;;;18.60;99.90;;;;;;5070060;28;21133;-72
2022/08/16 02:47:28;;;;;;;1999.90;999.90;;;18.60;99.90;;;;;;5070811;28;20461;-72
2022/08/16 02:49:54;;;;;;;1999.90;999.90;;;18.70;99.90;;;;;;5072139;28;20794;-72
2022/08/16 02:52:23;;;;;;;1999.90;999.90;;;18.70;99.90;;;;;;5071752;28;20495;-72
2022/08/16 02:54:50;;;;;;;1999.90;999.90;;;18.80;99.90;;;;;;5071567;28;20471;-72
2022/08/16 02:57:18;;;;;;;1999.90;999.90;;;18.80;99.90;;;;;;5072100;28;20825;-72
2022/08/16 02:59:44;;;;;;;1999.90;999.90;;;18.90;99.90;;;;;;5070480;28;20933;-73
2022/08/16 03:02:12;;;;;;;1999.90;999.90;;;19.00;99.90;;;;;;5071711;28;21147;-72
2022/08/16 03:04:39;;;;;;;1999.90;999.90;;;19.10;99.90;;;;;;5071179;28;20991;-71
2022/08/16 03:07:06;;;;;;;1999.90;999.90;;;19.30;99.90;;;;;;5071779;28;20445;-72
2022/08/16 03:09:34;;;;;;;1999.90;999.90;;;19.30;99.90;;;;;;5071910;28;20502;-72
2022/08/16 03:12:02;;;;;;;1999.90;999.90;;;19.20;99.90;;;;;;5071895;28;20949;-72
2022/08/16 03:14:29;;;;;;;1999.90;999.90;;;19.20;99.90;;;;;;5070788;28;20511;-72
2022/08/16 03:16:55;;;;;;;1999.90;999.90;;;19.10;99.90;;;;;;5071732;28;20441;-73
2022/08/16 03:19:22;;;;;;;1999.90;999.90;;;19.00;99.90;;;;;;5071913;28;20515;-72
2022/08/16 03:21:49;;;;;;;1999.90;999.90;;;19.00;99.90;;;;;;5071407;28;20441;-72
2022/08/16 03:24:15;;;;;;;1999.90;999.90;;;19.00;99.90;;;;;;5071645;28;20466;-72
2022/08/16 03:26:43;;;;;;;1999.90;999.90;;;18.90;99.90;;;;;;5071594;28;20491;-72
2022/08/16 03:29:11;;;;;;;1999.90;999.90;;;18.80;99.90;;;;;;5068524;28;20962;-72
2022/08/16 03:31:38;;;;;;;1999.90;999.90;;;18.80;99.90;;;;;;5071751;28;20437;-72
2022/08/16 03:34:04;;;;;;;1999.90;999.90;;;18.70;99.90;;;;;;5071889;28;20594;-72
2022/08/16 03:36:31;;;;;;;1999.90;999.90;;;18.70;99.90;;;;;;5068368;28;20506;-72
2022/08/16 03:38:58;;;;;;;1999.90;999.90;;;18.60;99.90;;;;;;5069644;28;20526;-72
2022/08/16 03:41:25;;;;;;;1999.90;999.90;;;18.50;99.90;;;;;;5064604;28;20493;-72
2022/08/16 03:43:54;;;;;;;1999.90;999.90;;;18.50;99.90;;;;;;5066866;28;20862;-71
2022/08/16 03:46:21;;;;;;;1999.90;999.90;;;18.60;99.90;;;;;;5065208;28;20465;-72
2022/08/16 03:48:49;;;;;;;1999.90;999.90;;;18.50;99.90;;;;;;5070807;28;20457;-70
2022/08/16 03:51:16;;;;;;;1999.90;999.90;;;18.50;99.90;;;;;;5069270;28;20514;-69
2022/08/16 03:53:43;;;;;;;1999.90;999.90;;;18.50;99.90;;;;;;5067549;28;21224;-72
2022/08/16 03:56:10;;;;;;;1999.90;999.90;;;18.40;99.90;;;;;;5067282;28;20465;-70
2022/08/16 03:58:38;;;;;;;1999.90;999.90;;;18.30;99.90;;;;;;5070136;28;20458;-71
2022/08/16 04:01:06;;;;;;;1999.90;999.90;;;18.30;99.90;;;;;;5071262;28;20485;-72
2022/08/16 04:03:33;;;;;;;1999.90;999.90;;;18.20;99.90;;;;;;5071176;28;20445;-74
2022/08/16 04:05:59;;;;;;;1999.90;999.90;;;18.20;99.90;;;;;;5073215;28;20499;-70
2022/08/16 04:08:26;;;;;;;1999.90;999.90;;;18.10;99.90;;;;;;5076661;28;20441;-70
2022/08/16 04:10:55;;;;;;;1999.90;999.90;;;18.10;99.90;;;;;;5076612;28;20933;-69
2022/08/16 04:13:22;;;;;;;1999.90;999.90;;;18.00;99.90;;;;;;5075232;28;20518;-70
2022/08/16 04:15:49;;;;;;;1999.90;999.90;;;17.90;99.90;;;;;;5076332;28;20968;-69
2022/08/16 04:18:17;;;;;;;1999.90;999.90;;;17.90;99.90;;;;;;5076945;28;20483;-70
2022/08/16 04:20:43;;;;;;;1999.90;999.90;;;17.90;99.90;;;;;;5076600;28;20967;-70
2022/08/16 04:23:10;;;;;;;1999.90;999.90;;;18.00;99.90;;;;;;5074804;28;20999;-70
2022/08/16 04:25:37;;;;;;;1999.90;999.90;;;17.90;99.90;;;;;;5075040;28;20495;-70
2022/08/16 04:28:05;;;;;;;1999.90;999.90;;;17.90;99.90;;;;;;5073692;28;20838;-69
2022/08/16 04:30:31;;;;;;;1999.90;999.90;;;17.90;99.90;;;;;;5074614;28;20796;-70
2022/08/16 04:32:59;;;;;;;1999.90;999.90;;;17.70;99.90;;;;;;5074917;28;20445;-70
2022/08/16 04:35:27;;;;;;;1999.90;999.90;;;17.70;99.90;;;;;;5074501;28;21018;-70
2022/08/16 04:37:54;;;;;;;1999.90;999.90;;;17.70;99.90;;;;;;5074815;28;20471;-70
2022/08/16 04:40:22;;;;;;;1999.90;999.90;;;17.70;99.90;;;;;;5073637;28;20549;-70
2022/08/16 04:42:49;;;;;;;1999.90;999.90;;;17.80;99.90;;;;;;5069967;28;20437;-70
2022/08/16 04:45:17;;;;;;;1999.90;999.90;;;17.80;99.90;;;;;;5073998;28;20495;-70
2022/08/16 04:47:44;;;;;;;1999.90;999.90;;;17.90;99.90;;;;;;5074953;28;20433;-69
2022/08/16 04:50:13;;;;;;;1999.90;999.90;;;18.00;99.90;;;;;;5075069;28;20499;-70
2022/08/16 04:52:44;;;;;;;1999.90;999.90;;;18.10;99.90;;;;;;5075029;28;20507;-70
2022/08/16 04:55:13;;;;;;;1999.90;999.90;;;18.20;99.90;;;;;;5074405;28;20875;-70
2022/08/16 04:57:40;;;;;;;1999.90;999.90;;;18.20;99.90;;;;;;5075275;28;20437;-70
2022/08/16 05:00:12;;;;;;;1999.90;999.90;;;18.20;99.90;;;;;;5075164;28;20546;-70
2022/08/16 05:02:39;;;;;;;1999.90;999.90;;;18.30;99.90;;;;;;5075555;28;20849;-70
2022/08/16 05:05:07;;;;;;;1999.90;999.90;;;18.40;99.90;;;;;;5074333;28;20461;-70
2022/08/16 05:07:33;;;;;;;1999.90;999.90;;;18.30;99.90;;;;;;5074212;28;20876;-70
2022/08/16 05:10:02;;;;;;;1999.90;999.90;;;18.30;99.90;;;;;;5073490;28;20457;-70
2022/08/16 05:12:28;;;;;;;1999.90;999.90;;;18.40;99.90;;;;;;5075422;28;20446;-70
2022/08/16 05:14:55;;;;;;;1999.90;999.90;;;18.60;99.90;;;;;;5074722;28;21052;-72
2022/08/16 05:17:21;;;;;;;1999.90;999.90;;;18.80;99.90;;;;;;5074170;28;20484;-70
2022/08/16 05:19:49;;;;;;;1999.90;999.90;;;18.90;99.90;;;;;;5073891;28;20495;-70
2022/08/16 05:22:15;;;;;;;1999.90;999.90;;;19.10;99.90;;;;;;5073912;28;20445;-70
2022/08/16 05:24:43;;;;;;;1999.90;999.90;;;19.40;99.90;;;;;;5071399;28;20477;-70
2022/08/16 05:27:11;;;;;;;1999.90;999.90;;;19.60;99.90;;;;;;5068599;28;20481;-70
2022/08/16 05:29:38;;;;;;;1999.90;999.90;;;19.80;99.90;;;;;;5069027;28;20945;-70
2022/08/16 05:32:05;;;;;;;1999.90;999.90;;;20.00;99.90;;;;;;5067886;28;20461;-70
2022/08/16 05:34:32;;;;;;;1999.90;999.90;;;20.30;99.90;;;;;;5067230;28;20488;-70
2022/08/16 05:36:58;;;;;;;1999.90;999.90;;;20.50;99.90;;;;;;5071181;28;21086;-68
2022/08/16 05:39:27;;;;;;;1999.90;999.90;;;20.80;99.90;;;;;;5068419;28;20461;-68
2022/08/16 05:41:54;;;;;;;1999.90;999.90;;;21.10;99.90;;;;;;5064506;28;20894;-68
2022/08/16 05:44:23;;;;;;;1999.90;999.90;;;21.10;99.90;;;;;;5068914;28;20542;-66
2022/08/16 05:46:50;;;;;;;1999.90;999.90;;;21.00;99.90;;;;;;5070332;28;20461;-70
2022/08/16 05:49:17;;;;;;;1999.90;999.90;;;21.00;99.90;;;;;;5069337;28;20469;-70
2022/08/16 05:51:46;;;;;;;1999.90;999.90;;;21.00;99.90;;;;;;5068562;28;20461;-70
2022/08/16 05:54:16;;;;;;;1999.90;999.90;;;21.40;99.90;;;;;;5069316;28;20480;-70
2022/08/16 05:56:44;;;;;;;1999.90;999.90;;;21.70;99.90;;;;;;5067549;28;20465;-70
2022/08/16 05:59:12;;;;;;;1999.90;999.90;;;21.90;99.90;;;;;;5069120;28;20473;-70
2022/08/16 06:01:42;;;;;;;1999.90;999.90;;;22.00;99.90;;;;;;5067012;28;20489;-70
2022/08/16 06:04:10;;;;;;;1999.90;999.90;;;22.40;99.90;;;;;;5070813;28;20478;-70
2022/08/16 06:06:37;;;;;;;1999.90;999.90;;;23.00;99.90;;;;;;5067872;28;20461;-70
2022/08/16 06:09:04;;;;;;;1999.90;999.90;;;23.20;99.90;;;;;;5068401;28;20519;-70
2022/08/16 06:11:31;;;;;;;1999.90;999.90;;;23.40;99.90;;;;;;5066930;28;20495;-70
2022/08/16 06:13:57;;;;;;;1999.90;999.90;;;23.50;99.90;;;;;;5068403;28;20996;-71
2022/08/16 06:16:24;;;;;;;1999.90;999.90;;;23.60;99.90;;;;;;5064372;28;20457;-70
2022/08/16 06:18:52;;;;;;;1999.90;999.90;;;23.60;99.90;;;;;;5068283;28;20693;-70
2022/08/16 06:21:19;;;;;;;1999.90;999.90;;;23.40;99.90;;;;;;5069284;28;20546;-70
2022/08/16 06:23:45;;;;;;;1999.90;999.90;;;23.70;99.90;;;;;;5069037;28;20528;-70
2022/08/16 06:26:12;;;;;;;1999.90;999.90;;;23.70;99.90;;;;;;5068085;28;20956;-70
2022/08/16 06:28:40;;;;;;;1999.90;999.90;;;23.60;99.90;;;;;;5068879;28;20454;-70
2022/08/16 06:31:09;;;;;;;1999.90;999.90;;;23.70;99.90;;;;;;5066819;28;20454;-70
2022/08/16 06:33:36;;;;;;;1999.90;999.90;;;23.80;99.90;;;;;;5066515;28;20526;-70
2022/08/16 06:36:07;;;;;;;1999.90;999.90;;;24.10;99.90;;;;;;5067417;28;21023;-71
2022/08/16 06:38:34;;;;;;;1999.90;999.90;;;24.10;99.90;;;;;;5064964;28;21322;-70
2022/08/16 06:41:03;;;;;;;1999.90;999.90;;;24.30;99.90;;;;;;5067558;28;20547;-70
2022/08/16 06:43:30;;;;;;;1999.90;999.90;;;24.50;99.90;;;;;;5064426;28;20489;-71
2022/08/16 06:45:57;;;;;;;1999.90;999.90;;;24.50;99.90;;;;;;5071960;28;20449;-70
2022/08/16 06:48:24;;;;;;;1999.90;999.90;;;24.50;99.90;;;;;;5072319;28;20863;-70
2022/08/16 06:50:51;;;;;;;1999.90;999.90;;;24.30;99.90;;;;;;5072155;28;20937;-70
2022/08/16 06:53:19;;;;;;;1999.90;999.90;;;24.60;99.90;;;;;;5072370;28;20445;-70
2022/08/16 06:55:46;;;;;;;1999.90;999.90;;;25.00;99.90;;;;;;5071914;28;20465;-70
2022/08/16 06:58:13;;;;;;;1999.90;999.90;;;25.40;99.90;;;;;;5070825;28;20490;-70
2022/08/16 07:00:40;;;;;;;1999.90;999.90;;;25.30;99.90;;;;;;5072212;28;20491;-70
2022/08/16 07:03:08;;;;;;;1999.90;999.90;;;25.50;99.90;;;;;;5071968;28;20528;-70
2022/08/16 07:05:35;;;;;;;1999.90;999.90;;;25.80;99.90;;;;;;5072485;28;21050;-71
2022/08/16 07:08:03;;;;;;;1999.90;999.90;;;26.10;99.90;;;;;;5088140;28;20445;-71
2022/08/16 07:10:31;;;;;;;1999.90;999.90;;;26.10;99.90;;;;;;5071973;28;21004;-70
2022/08/16 07:12:57;;;;;;;1999.90;999.90;;;26.30;99.90;;;;;;5067576;28;20503;-70
2022/08/16 07:15:24;;;;;;;1999.90;999.90;;;26.40;99.90;;;;;;5065977;28;20538;-71
2022/08/16 07:17:51;;;;;;;1999.90;999.90;;;26.70;99.90;;;;;;5068156;28;20465;-70
2022/08/16 07:20:21;;;;;;;1999.90;999.90;;;26.60;99.90;;;;;;5069284;28;20467;-70
2022/08/16 07:22:48;;;;;;;1999.90;999.90;;;26.70;99.30;;;;;;5066550;28;21008;-70
2022/08/16 07:25:15;;;;;;;1999.90;999.90;;;26.70;98.80;;;;;;5071384;28;20842;-70
2022/08/16 07:27:44;;;;;;;1999.90;999.90;;;26.80;99.20;;;;;;5067060;28;20471;-70
2022/08/16 07:30:13;;;;;;;1999.90;999.90;;;27.00;99.00;;;;;;5065683;28;20534;-70
2022/08/16 07:32:40;;;;;;;1999.90;999.90;;;27.20;98.20;;;;;;5065770;28;20945;-68
2022/08/16 07:35:07;;;;;;;1999.90;999.90;;;27.30;97.30;;;;;;5066878;28;20473;-70
2022/08/16 07:37:35;;;;;;;1999.90;999.90;;;27.10;97.20;;;;;;5066080;28;20540;-70
2022/08/16 07:40:02;;;;;;;1999.90;999.90;;;27.10;96.90;;;;;;5064221;28;20887;-70
2022/08/16 07:42:28;;;;;;;1999.90;999.90;;;27.00;97.50;;;;;;5067793;28;20481;-70
2022/08/16 07:44:57;;;;;;;1999.90;999.90;;;27.10;98.20;;;;;;5069218;28;20488;-70
2022/08/16 07:47:23;;;;;;;1999.90;999.90;;;27.10;97.80;;;;;;5069851;28;20483;-68
2022/08/16 07:49:50;;;;;;;1999.90;999.90;;;27.10;96.50;;;;;;5072130;28;20886;-71
2022/08/16 07:52:16;;;;;;;1999.90;999.90;;;27.20;97.00;;;;;;5076635;28;20490;-68
2022/08/16 07:54:43;;;;;;;1999.90;999.90;;;27.30;96.80;;;;;;5072288;28;20516;-68
2022/08/16 07:57:10;;;;;;;1999.90;999.90;;;27.50;96.50;;;;;;5073470;28;20514;-68
2022/08/16 07:59:37;;;;;;;1999.90;999.90;;;27.30;96.60;;;;;;5075270;28;20453;-68
2022/08/16 08:02:05;;;;;;;1999.90;999.90;;;27.60;96.70;;;;;;5075448;28;20480;-68
2022/08/16 08:04:32;;;;;;;1999.90;999.90;;;27.50;96.10;;;;;;5074747;28;20502;-68
2022/08/16 08:06:59;;;;;;;1999.90;999.90;;;27.80;96.40;;;;;;5075296;28;20449;-68
2022/08/16 08:09:26;;;;;;;1999.90;999.90;;;28.00;95.40;;;;;;5073195;28;20449;-68
2022/08/16 08:11:52;;;;;;;1999.90;999.90;;;28.10;95.40;;;;;;5073993;28;20449;-68
2022/08/16 08:14:20;;;;;;;1999.90;999.90;;;28.10;94.70;;;;;;5069098;28;20512;-70
2022/08/16 08:16:47;;;;;;;1999.90;999.90;;;27.60;95.10;;;;;;5073966;28;20449;-68
2022/08/16 08:19:15;;;;;;;1999.90;999.90;;;27.60;95.40;;;;;;5074416;28;20793;-68
2022/08/16 08:21:42;;;;;;;1999.90;999.90;;;27.90;95.00;;;;;;5073839;28;20530;-71
2022/08/16 08:24:13;;;;;;;1999.90;999.90;;;27.80;95.00;;;;;;5070101;28;20478;-68
2022/08/16 08:26:41;;;;;;;1999.90;999.90;;;27.90;94.60;;;;;;5069373;28;20456;-68
2022/08/16 08:29:07;;;;;;;1999.90;999.90;;;27.50;95.10;;;;;;5074578;28;20451;-68
2022/08/16 08:31:35;;;;;;;1999.90;999.90;;;27.70;94.80;;;;;;5074689;28;20638;-68
2022/08/16 08:34:03;;;;;;;1999.90;999.90;;;27.70;94.90;;;;;;5074687;28;20465;-68
2022/08/16 08:36:32;;;;;;;1999.90;999.90;;;28.20;94.90;;;;;;5074226;28;20449;-68
2022/08/16 08:38:59;;;;;;;1999.90;999.90;;;28.00;94.20;;;;;;5071714;28;20514;-68
2022/08/16 08:41:28;;;;;;;1999.90;999.90;;;27.90;93.70;;;;;;5073758;28;20481;-68
2022/08/16 08:43:56;;;;;;;1999.90;999.90;;;27.30;94.40;;;;;;5068938;28;20490;-68
2022/08/16 08:46:24;;;;;;;1999.90;999.90;;;27.00;94.80;;;;;;5071712;28;20949;-68
2022/08/16 08:48:53;;;;;;;1999.90;999.90;;;27.40;95.30;;;;;;5069317;28;20457;-68
2022/08/16 08:51:19;;;;;;;1999.90;999.90;;;27.90;94.20;;;;;;5069576;28;20506;-70
2022/08/16 08:53:49;;;;;;;1999.90;999.90;;;28.00;94.50;;;;;;5068962;28;20558;-68
2022/08/16 08:56:16;;;;;;;1999.90;999.90;;;27.90;93.30;;;;;;5070261;28;20526;-68
2022/08/16 08:58:43;;;;;;;1999.90;999.90;;;28.20;92.80;;;;;;5068753;28;20507;-68
2022/08/16 09:01:10;;;;;;;1999.90;999.90;;;28.20;92.70;;;;;;5077269;28;21042;-66
2022/08/16 09:03:39;;;;;;;1999.90;999.90;;;28.00;93.10;;;;;;5074094;28;20495;-68
2022/08/16 09:06:07;;;;;;;1999.90;999.90;;;28.30;92.50;;;;;;5073769;28;20469;-68
2022/08/16 09:08:33;;;;;;;1999.90;999.90;;;28.70;91.50;;;;;;5074233;28;20447;-71
2022/08/16 09:11:01;;;;;;;1999.90;999.90;;;29.20;91.50;;;;;;5074101;28;20860;-69
2022/08/16 09:13:28;;;;;;;1999.90;999.90;;;28.90;90.20;;;;;;5073898;28;20449;-68
2022/08/16 09:15:55;;;;;;;1999.90;999.90;;;29.20;90.20;;;;;;5067491;28;20992;-68
2022/08/16 09:18:23;;;;;;;1999.90;999.90;;;28.80;90.30;;;;;;5080396;28;20471;-69
2022/08/16 09:20:51;;;;;;;1999.90;999.90;;;29.00;90.40;;;;;;5073256;28;20485;-68
2022/08/16 09:23:18;;;;;;;1999.90;999.90;;;29.00;89.90;;;;;;5066659;28;20481;-68
2022/08/16 09:25:45;;;;;;;1999.90;999.90;;;28.50;90.70;;;;;;5068850;28;20477;-69
2022/08/16 09:28:13;;;;;;;1999.90;999.90;;;28.20;91.70;;;;;;5073503;28;20437;-69
2022/08/16 09:30:41;;;;;;;1999.90;999.90;;;28.00;91.80;;;;;;5073783;28;20456;-68
2022/08/16 09:33:08;;;;;;;1999.90;999.90;;;27.90;91.50;;;;;;5068757;28;21015;-69
2022/08/16 09:35:36;;;;;;;1999.90;999.90;;;27.70;91.20;;;;;;5065409;28;20486;-68
2022/08/16 09:38:03;;;;;;;1999.90;999.90;;;27.60;91.40;;;;;;5066280;28;20488;-69
2022/08/16 09:40:31;;;;;;;1999.90;999.90;;;28.10;91.10;;;;;;5070915;28;20515;-69
2022/08/16 09:42:58;;;;;;;1999.90;999.90;;;28.50;90.70;;;;;;5070434;28;20483;-68
2022/08/16 09:45:27;;;;;;;1999.90;999.90;;;28.60;89.20;;;;;;5069360;28;20876;-69
2022/08/16 09:47:54;;;;;;;1999.90;999.90;;;28.40;89.80;;;;;;5069405;28;20458;-68
2022/08/16 09:50:24;;;;;;;1999.90;999.90;;;28.00;90.80;;;;;;5070243;28;20957;-70
2022/08/16 09:52:50;;;;;;;1999.90;999.90;;;27.60;92.00;;;;;;5067816;28;20515;-69
2022/08/16 09:55:17;;;;;;;1999.90;999.90;;;27.70;92.40;;;;;;5067943;28;20478;-69
2022/08/16 09:57:43;;;;;;;1999.90;999.90;;;27.80;92.10;;;;;;5068260;28;20518;-69
2022/08/16 10:00:12;;;;;;;1999.90;999.90;;;27.90;92.20;;;;;;5067469;28;20969;-69
2022/08/16 10:02:41;;;;;;;1999.90;999.90;;;28.30;91.60;;;;;;5070405;28;20477;-69
2022/08/16 10:05:08;;;;;;;1999.90;999.90;;;28.50;91.10;;;;;;5067756;28;20489;-69
2022/08/16 10:07:35;;;;;;;1999.90;999.90;;;28.50;90.50;;;;;;5071586;28;20457;-69
2022/08/16 10:10:02;;;;;;;1999.90;999.90;;;28.50;90.20;;;;;;5068769;28;20465;-69
2022/08/16 10:15:12;;;;;;;1999.90;999.90;;;28.50;90.90;;;;;;5055023;28;20865;-70
2022/08/16 10:17:41;;;;;;;1999.90;999.90;;;28.40;90.90;;;;;;5069393;28;20457;-70
2022/08/16 10:20:10;;;;;;;1999.90;999.90;;;28.10;91.10;;;;;;5068318;28;20461;-70
2022/08/16 10:22:37;;;;;;;1999.90;999.90;;;28.20;90.90;;;;;;5068720;28;20503;-71
2022/08/16 10:25:05;;;;;;;1999.90;999.90;;;28.70;91.30;;;;;;5067468;28;20530;-71
2022/08/16 10:27:32;;;;;;;1999.90;999.90;;;29.00;89.10;;;;;;5069523;28;20503;-71
2022/08/16 10:29:59;;;;;;;1999.90;999.90;;;29.00;87.00;;;;;;5066367;28;20457;-70
2022/08/16 10:32:26;;;;;;;1999.90;999.90;;;29.00;87.60;;;;;;5068047;28;20453;-69
2022/08/16 10:34:54;;;;;;;1999.90;999.90;;;28.60;88.30;;;;;;5067646;28;20550;-69
2022/08/16 10:37:20;;;;;;;1999.90;999.90;;;28.50;88.40;;;;;;5066629;28;20465;-70
2022/08/16 10:39:47;;;;;;;1999.90;999.90;;;28.50;89.60;;;;;;5070898;28;20968;-70
2022/08/16 10:42:16;;;;;;;1999.90;999.90;;;28.60;88.90;;;;;;5072019;28;20523;-70
2022/08/16 10:44:43;;;;;;;1999.90;999.90;;;28.70;90.20;;;;;;5068360;28;20525;-70
2022/08/16 10:47:10;;;;;;;1999.90;999.90;;;29.00;88.10;;;;;;5069736;28;20518;-70
2022/08/16 10:49:37;;;;;;;1999.90;999.90;;;29.20;89.00;;;;;;5072625;28;20483;-71
2022/08/16 10:52:06;;;;;;;1999.90;999.90;;;29.70;87.10;;;;;;5071979;28;20941;-71
2022/08/16 10:54:33;;;;;;;1999.90;999.90;;;30.00;88.60;;;;;;5071496;28;20461;-71
2022/08/16 10:57:02;;;;;;;1999.90;999.90;;;30.40;84.10;;;;;;5072239;28;20442;-71
2022/08/16 10:59:30;;;;;;;1999.90;999.90;;;30.60;84.20;;;;;;5068765;28;20982;-72
2022/08/16 11:01:57;;;;;;;1999.90;999.90;;;30.80;81.60;;;;;;5071324;28;20580;-71
2022/08/16 11:04:24;;;;;;;1999.90;999.90;;;31.20;79.80;;;;;;5071197;28;21053;-71
2022/08/16 11:06:50;;;;;;;1999.90;999.90;;;31.30;79.50;;;;;;5071711;28;20472;-71
2022/08/16 11:09:18;;;;;;;1999.90;999.90;;;31.00;78.60;;;;;;5069747;28;20469;-72
2022/08/16 11:11:45;;;;;;;1999.90;999.90;;;31.00;78.10;;;;;;5069511;28;20473;-71
2022/08/16 11:14:12;;;;;;;1999.90;999.90;;;31.30;78.50;;;;;;5071534;28;20466;-71
2022/08/16 11:16:39;;;;;;;1999.90;999.90;;;31.60;75.90;;;;;;5070277;28;20948;-71
2022/08/16 11:19:06;;;;;;;1999.90;999.90;;;31.70;76.50;;;;;;5070457;28;20470;-71
2022/08/16 11:21:32;;;;;;;1999.90;999.90;;;31.50;78.00;;;;;;5068747;28;20791;-71
2022/08/16 11:23:59;;;;;;;1999.90;999.90;;;31.20;81.00;;;;;;5071413;28;21041;-71
2022/08/16 11:26:28;;;;;;;1999.90;999.90;;;30.70;80.70;;;;;;5071450;28;20453;-71
2022/08/16 11:28:56;;;;;;;1999.90;999.90;;;30.80;81.90;;;;;;5073868;28;20445;-71
2022/08/16 11:31:23;;;;;;;1999.90;999.90;;;30.60;81.20;;;;;;5071524;28;21129;-71
2022/08/16 11:33:49;;;;;;;1999.90;999.90;;;30.80;81.40;;;;;;5070498;28;20481;-71
2022/08/16 11:36:16;;;;;;;1999.90;999.90;;;30.70;80.90;;;;;;5071261;28;20446;-71
2022/08/16 11:38:43;;;;;;;1999.90;999.90;;;30.50;77.10;;;;;;5071786;28;20499;-69
2022/08/16 11:41:10;;;;;;;1999.90;999.90;;;30.20;75.60;;;;;;5071929;28;20453;-70
2022/08/16 11:43:40;;;;;;;1999.90;999.90;;;29.80;77.00;;;;;;5071154;28;20538;-70
2022/08/16 11:46:09;;;;;;;1999.90;999.90;;;29.40;76.40;;;;;;5072636;28;20437;-70
2022/08/16 11:48:37;;;;;;;1999.90;999.90;;;29.60;76.10;;;;;;5070801;28;20826;-70
2022/08/16 11:51:04;;;;;;;1999.90;999.90;;;29.90;74.00;;;;;;5071462;28;20506;-72
2022/08/16 11:53:32;;;;;;;1999.90;999.90;;;30.10;73.80;;;;;;5071249;28;20441;-72
2022/08/16 11:56:00;;;;;;;1999.90;999.90;;;30.30;73.00;;;;;;5066547;28;20483;-71
2022/08/16 11:58:30;;;;;;;1999.90;999.90;;;30.70;73.80;;;;;;5064979;28;20465;-72
2022/08/16 12:00:58;;;;;;;1999.90;999.90;;;30.90;73.40;;;;;;5069115;28;20838;-71
2022/08/16 12:03:27;;;;;;;1999.90;999.90;;;30.70;73.80;;;;;;5068860;28;20927;-70